Time;durP1;ratioP1;P1;durP2;ratioP2;P2;SDS_P1;SDS_P2;PMS_P1;PMS_P2;Temp;Humidity;BMP_temperature;BMP_pressure;BME280_temperature;BME280_humidity;BME280_pressure;Samples;Min_cycle;Max_cycle;Signal;HPM_P1;HPM_P2
2022/06/05 00:00:55;;;;;;;17.27;16.67;;;23.90;76.80;;;;;;5075012;28;20489;-66
2022/06/05 00:03:32;;;;;;;17.10;16.50;;;23.90;76.80;;;;;;5063040;28;20552;-66
2022/06/05 00:06:06;;;;;;;18.17;17.50;;;23.90;76.90;;;;;;5055086;28;20530;-66
2022/06/05 00:08:47;;;;;;;16.50;15.90;;;23.80;77.70;;;;;;5054692;28;20450;-66
2022/06/05 00:11:14;;;;;;;16.10;15.60;;;23.80;77.10;;;;;;5071110;28;20534;-66
2022/06/05 00:13:45;;;;;;;17.60;16.90;;;23.80;77.30;;;;;;5074770;28;21074;-66
2022/06/05 00:16:13;;;;;;;17.43;16.83;;;23.90;77.40;;;;;;5074816;28;20449;-66
2022/06/05 00:18:42;;;;;;;16.83;16.23;;;23.80;77.50;;;;;;5074540;28;20475;-66
2022/06/05 00:21:10;;;;;;;18.10;17.47;;;23.90;77.50;;;;;;5059100;28;20565;-66
2022/06/05 00:23:38;;;;;;;17.53;16.93;;;23.80;77.50;;;;;;5054629;28;20467;-66
2022/06/05 00:26:13;;;;;;;17.80;17.10;;;23.90;77.70;;;;;;5054653;28;20542;-66
2022/06/05 00:28:50;;;;;;;17.57;16.90;;;23.90;78.50;;;;;;5054519;28;20715;-66
2022/06/05 00:31:24;;;;;;;17.50;16.90;;;23.90;77.80;;;;;;5070687;28;20521;-66
2022/06/05 00:33:52;;;;;;;17.90;17.17;;;23.90;78.00;;;;;;5074513;28;20530;-66
2022/06/05 00:36:38;;;;;;;22.37;21.57;;;23.90;78.90;;;;;;5074425;28;20613;-66
2022/06/05 00:39:11;;;;;;;17.20;16.60;;;23.80;78.10;;;;;;5073977;28;20461;-66
2022/06/05 00:41:56;;;;;;;15.97;15.47;;;23.90;78.40;;;;;;5055340;28;20929;-66
2022/06/05 00:44:28;;;;;;;17.60;17.00;;;23.80;78.40;;;;;;5054268;28;20471;-66
2022/06/05 00:46:56;;;;;;;17.60;17.00;;;23.80;78.50;;;;;;5054313;28;20538;-66
2022/06/05 00:49:30;;;;;;;17.00;16.30;;;23.80;78.50;;;;;;5054107;28;20519;-66
2022/06/05 00:51:57;;;;;;;18.10;17.30;;;23.80;78.60;;;;;;5073481;28;20532;-66
2022/06/05 00:54:24;;;;;;;17.33;16.73;;;23.80;78.70;;;;;;5074017;28;20549;-66
2022/06/05 00:56:50;;;;;;;17.10;16.50;;;23.80;79.40;;;;;;5073923;28;20455;-66
2022/06/05 00:59:20;;;;;;;17.20;16.47;;;23.80;78.70;;;;;;5055840;28;20535;-66
2022/06/05 01:01:48;;;;;;;18.00;17.40;;;23.80;78.80;;;;;;5068743;28;20857;-66
2022/06/05 01:04:16;;;;;;;17.00;16.40;;;23.80;78.90;;;;;;5074064;28;20566;-66
2022/06/05 01:06:44;;;;;;;17.83;17.13;;;23.80;79.10;;;;;;5073775;28;20522;-66
2022/06/05 01:09:11;;;;;;;17.70;17.10;;;23.80;79.20;;;;;;5055911;28;20551;-66
2022/06/05 01:11:49;;;;;;;17.83;17.20;;;23.80;79.30;;;;;;5057374;28;20522;-66
2022/06/05 01:14:27;;;;;;;17.30;16.70;;;23.80;79.20;;;;;;5073724;28;20541;-66
2022/06/05 01:17:00;;;;;;;18.20;17.50;;;23.80;79.20;;;;;;5073533;28;20526;-66
2022/06/05 01:19:42;;;;;;;17.50;16.90;;;23.80;79.40;;;;;;5054793;28;20523;-66
2022/06/05 01:22:50;;;;;;;17.60;17.10;;;23.80;79.60;;;;;;5053587;28;20523;-67
2022/06/05 01:25:53;;;;;;;18.50;17.90;;;23.80;79.60;;;;;;5053475;28;20873;-66
2022/06/05 01:28:24;;;;;;;17.67;17.07;;;23.80;79.80;;;;;;5010849;28;20821;-66
2022/06/05 01:30:57;;;;;;;17.80;17.20;;;23.80;79.80;;;;;;5053392;28;20994;-66
2022/06/05 01:33:26;;;;;;;18.00;17.40;;;23.80;80.00;;;;;;5053222;28;21054;-66
2022/06/05 01:36:04;;;;;;;18.20;17.60;;;23.70;80.10;;;;;;5053294;28;20527;-66
2022/06/05 01:38:45;;;;;;;17.37;16.77;;;23.70;80.00;;;;;;5063063;28;20534;-66
2022/06/05 01:41:17;;;;;;;17.43;16.83;;;23.80;80.20;;;;;;5073066;28;20485;-66
2022/06/05 01:43:49;;;;;;;17.33;16.73;;;23.80;80.90;;;;;;5072855;28;20499;-66
2022/06/05 01:46:22;;;;;;;17.30;16.70;;;23.80;80.30;;;;;;5072682;28;20523;-66
2022/06/05 01:48:55;;;;;;;17.60;17.00;;;23.80;80.30;;;;;;5059823;28;20531;-66
2022/06/05 01:51:28;;;;;;;20.60;19.77;;;23.70;80.90;;;;;;5054031;28;20447;-66
2022/06/05 01:53:57;;;;;;;23.23;22.37;;;23.80;80.30;;;;;;5052897;28;21016;-66
2022/06/05 01:56:30;;;;;;;18.07;17.47;;;23.70;80.40;;;;;;5052940;28;20531;-66
2022/06/05 01:59:05;;;;;;;17.63;17.03;;;23.70;81.20;;;;;;5065955;28;20443;-66
2022/06/05 02:01:36;;;;;;;17.20;16.60;;;23.80;80.40;;;;;;5072712;28;20569;-66
2022/06/05 02:04:10;;;;;;;17.70;17.10;;;23.70;80.50;;;;;;5072695;28;20553;-66
2022/06/05 02:06:41;;;;;;;17.33;16.63;;;23.70;80.50;;;;;;5072733;28;20518;-66
2022/06/05 02:09:14;;;;;;;18.23;17.63;;;23.70;80.60;;;;;;5057697;28;20543;-66
2022/06/05 02:11:42;;;;;;;17.33;16.73;;;23.70;80.70;;;;;;5052644;28;20870;-66
2022/06/05 02:14:10;;;;;;;17.87;17.27;;;23.70;80.50;;;;;;5052477;28;20464;-66
2022/06/05 02:16:40;;;;;;;17.80;17.20;;;23.70;80.60;;;;;;5060618;28;21036;-66
2022/06/05 02:19:10;;;;;;;17.37;16.77;;;23.70;81.40;;;;;;5052301;28;20527;-66
2022/06/05 02:21:40;;;;;;;17.80;17.20;;;23.70;80.70;;;;;;5052527;28;20570;-66
2022/06/05 02:24:08;;;;;;;17.83;17.23;;;23.70;80.80;;;;;;5052446;28;20551;-66
2022/06/05 02:26:35;;;;;;;18.10;17.43;;;23.70;80.70;;;;;;5061554;28;20451;-66
2022/06/05 02:29:07;;;;;;;17.40;16.80;;;23.70;80.80;;;;;;5068616;28;20448;-66
2022/06/05 02:31:42;;;;;;;18.23;17.53;;;23.70;81.20;;;;;;5072330;28;20514;-67
2022/06/05 02:34:18;;;;;;;18.00;17.30;;;23.70;81.00;;;;;;5072235;28;20908;-66
2022/06/05 02:36:57;;;;;;;18.30;17.50;;;23.70;81.10;;;;;;5061018;28;20542;-66
2022/06/05 02:39:36;;;;;;;18.80;18.00;;;23.70;81.10;;;;;;5052419;28;20444;-66
2022/06/05 02:42:11;;;;;;;18.83;18.13;;;23.70;81.10;;;;;;5052043;28;20484;-66
2022/06/05 02:44:46;;;;;;;18.43;17.73;;;23.70;81.10;;;;;;5051993;28;20554;-66
2022/06/05 02:47:22;;;;;;;17.83;17.03;;;23.70;81.20;;;;;;5068535;28;20553;-66
2022/06/05 02:49:55;;;;;;;17.47;16.77;;;23.60;81.20;;;;;;5071815;28;20514;-66
2022/06/05 02:52:23;;;;;;;17.50;16.90;;;23.60;81.10;;;;;;5072171;28;20470;-66
2022/06/05 02:55:00;;;;;;;19.03;18.33;;;23.60;81.20;;;;;;5071885;28;20463;-66
2022/06/05 02:57:27;;;;;;;19.57;18.87;;;23.70;81.40;;;;;;5052988;28;20450;-66
2022/06/05 02:59:55;;;;;;;20.30;19.47;;;23.60;81.30;;;;;;5051917;28;20535;-66
2022/06/05 03:05:07;;;;;;;18.47;17.60;;;23.60;81.20;;;;;;5051813;28;20420;-66
2022/06/05 03:07:33;;;;;;;18.80;18.10;;;23.60;81.30;;;;;;5070449;28;20522;-66
2022/06/05 03:10:00;;;;;;;17.40;16.80;;;23.60;81.30;;;;;;5071715;28;20538;-66
2022/06/05 03:12:27;;;;;;;18.20;17.50;;;23.60;81.40;;;;;;5052491;28;20447;-66
2022/06/05 03:15:00;;;;;;;18.07;17.40;;;23.60;81.30;;;;;;5051742;28;20551;-66
2022/06/05 03:17:28;;;;;;;17.30;16.70;;;23.60;81.50;;;;;;5069235;28;20959;-66
2022/06/05 03:19:54;;;;;;;18.17;17.57;;;23.60;81.40;;;;;;5071519;28;20539;-66
2022/06/05 03:22:21;;;;;;;18.40;17.70;;;23.60;81.50;;;;;;5071526;28;20571;-66
2022/06/05 03:24:48;;;;;;;18.97;17.97;;;23.60;81.70;;;;;;5071482;28;20557;-66
2022/06/05 03:27:15;;;;;;;18.20;17.60;;;23.60;81.40;;;;;;5054854;28;20543;-66
2022/06/05 03:29:42;;;;;;;18.60;17.90;;;23.60;81.50;;;;;;5051492;28;20526;-66
2022/06/05 03:32:10;;;;;;;17.90;17.30;;;23.60;81.50;;;;;;5050655;28;20527;-66
2022/06/05 03:34:37;;;;;;;18.53;17.83;;;23.60;81.50;;;;;;5051403;28;20562;-66
2022/06/05 03:37:04;;;;;;;18.10;17.50;;;23.60;81.60;;;;;;5065574;28;20451;-66
2022/06/05 03:39:33;;;;;;;17.90;17.30;;;23.60;81.50;;;;;;5071340;28;20871;-66
2022/06/05 03:42:00;;;;;;;18.77;18.03;;;23.60;81.80;;;;;;5071285;28;20483;-66
2022/06/05 03:44:28;;;;;;;18.60;17.90;;;23.60;82.60;;;;;;5071384;28;20474;-66
2022/06/05 03:46:55;;;;;;;18.17;17.57;;;23.60;81.70;;;;;;5065563;28;20443;-66
2022/06/05 03:49:23;;;;;;;17.90;17.20;;;23.60;81.80;;;;;;5071264;28;20530;-66
2022/06/05 03:51:50;;;;;;;18.93;18.33;;;23.60;82.60;;;;;;5071307;28;20463;-66
2022/06/05 03:54:16;;;;;;;18.13;17.53;;;23.60;81.90;;;;;;5071116;28;20551;-66
2022/06/05 03:56:43;;;;;;;17.73;17.13;;;23.60;82.00;;;;;;5059639;28;20886;-66
2022/06/05 03:59:10;;;;;;;17.77;17.17;;;23.60;82.00;;;;;;5051188;28;20991;-66
2022/06/05 04:01:37;;;;;;;18.10;17.47;;;23.60;82.70;;;;;;5051136;28;20480;-66
2022/06/05 04:04:04;;;;;;;18.30;17.50;;;23.60;82.20;;;;;;5051047;28;20812;-66
2022/06/05 04:06:33;;;;;;;19.20;18.40;;;23.60;82.20;;;;;;5052205;28;20551;-66
2022/06/05 04:09:02;;;;;;;18.53;17.83;;;23.60;83.00;;;;;;5051770;28;20830;-66
2022/06/05 04:11:30;;;;;;;20.10;19.40;;;23.60;82.40;;;;;;5051088;28;20991;-66
2022/06/05 04:13:57;;;;;;;18.90;18.20;;;23.60;82.50;;;;;;5050935;28;20558;-66
2022/06/05 04:16:26;;;;;;;18.17;17.57;;;23.60;82.80;;;;;;5059011;28;20447;-66
2022/06/05 04:18:53;;;;;;;19.87;18.97;;;23.60;82.90;;;;;;5070740;28;21005;-66
2022/06/05 04:21:23;;;;;;;19.07;18.37;;;23.60;83.00;;;;;;5070924;28;20485;-66
2022/06/05 04:23:53;;;;;;;19.13;18.43;;;23.60;83.00;;;;;;5070028;28;21069;-66
2022/06/05 04:26:22;;;;;;;19.40;18.70;;;23.60;83.00;;;;;;5051017;28;20515;-66
2022/06/05 04:28:50;;;;;;;19.07;18.37;;;23.60;83.00;;;;;;5050620;28;20444;-66
2022/06/05 04:31:19;;;;;;;18.57;17.93;;;23.60;83.20;;;;;;5050895;28;20856;-66
2022/06/05 04:33:46;;;;;;;18.37;17.67;;;23.60;83.40;;;;;;5050530;28;21066;-67
2022/06/05 04:36:14;;;;;;;18.00;17.40;;;23.60;83.10;;;;;;5049798;28;20464;-66
2022/06/05 04:38:41;;;;;;;19.07;18.17;;;23.60;83.20;;;;;;5049605;28;20958;-67
2022/06/05 04:41:09;;;;;;;18.63;17.93;;;23.60;83.10;;;;;;5049720;28;20571;-66
2022/06/05 04:43:37;;;;;;;18.30;17.70;;;23.60;83.20;;;;;;5051718;28;20560;-66
2022/06/05 04:46:04;;;;;;;19.20;18.50;;;23.60;83.30;;;;;;5071437;28;20534;-66
2022/06/05 04:48:31;;;;;;;20.17;19.37;;;23.60;83.50;;;;;;5072893;28;20449;-66
2022/06/05 04:50:59;;;;;;;18.60;18.00;;;23.60;83.70;;;;;;5073058;28;20445;-66
2022/06/05 04:53:25;;;;;;;18.77;18.17;;;23.60;83.70;;;;;;5073039;28;20542;-66
2022/06/05 04:55:52;;;;;;;19.73;19.03;;;23.60;83.70;;;;;;5056172;28;20547;-66
2022/06/05 04:58:20;;;;;;;20.07;19.33;;;23.60;83.70;;;;;;5052736;28;20884;-66
2022/06/05 05:00:47;;;;;;;17.60;17.00;;;23.60;83.70;;;;;;5052789;28;20538;-66
2022/06/05 05:03:14;;;;;;;19.07;18.37;;;23.60;83.60;;;;;;5052867;28;20807;-66
2022/06/05 05:05:42;;;;;;;18.30;17.70;;;23.60;83.80;;;;;;5067571;28;20980;-66
2022/06/05 05:08:09;;;;;;;17.70;17.00;;;23.60;84.00;;;;;;5072622;28;20446;-66
2022/06/05 05:10:36;;;;;;;19.17;18.47;;;23.60;83.90;;;;;;5072811;28;20482;-66
2022/06/05 05:13:03;;;;;;;19.37;18.67;;;23.60;84.00;;;;;;5072608;28;20538;-66
2022/06/05 05:15:31;;;;;;;18.53;17.93;;;23.60;84.10;;;;;;5059392;28;20447;-66
2022/06/05 05:17:58;;;;;;;17.90;17.30;;;23.60;84.30;;;;;;5052399;28;20447;-66
2022/06/05 05:20:25;;;;;;;18.80;18.10;;;23.60;84.10;;;;;;5052580;28;20440;-66
2022/06/05 05:22:52;;;;;;;18.37;17.70;;;23.60;84.90;;;;;;5057149;28;20479;-67
2022/06/05 05:25:19;;;;;;;18.67;17.97;;;23.60;84.10;;;;;;5072643;28;20529;-67
2022/06/05 05:27:46;;;;;;;18.33;17.73;;;23.60;84.00;;;;;;5072260;28;20531;-67
2022/06/05 05:30:14;;;;;;;19.57;18.90;;;23.60;84.10;;;;;;5072426;28;20530;-66
2022/06/05 05:32:42;;;;;;;18.70;18.10;;;23.60;84.10;;;;;;5017073;28;1090781;-67
2022/06/05 05:35:10;;;;;;;17.53;16.93;;;23.50;84.10;;;;;;5053588;28;20526;-67
2022/06/05 05:37:37;;;;;;;18.77;18.03;;;23.60;84.40;;;;;;5053380;28;20943;-67
2022/06/05 05:42:49;;;;;;;19.67;18.97;;;23.60;84.80;;;;;;5053294;28;20565;-67
2022/06/05 05:45:16;;;;;;;19.60;18.80;;;23.60;85.00;;;;;;5053182;28;20524;-67
2022/06/05 05:47:44;;;;;;;19.50;18.80;;;23.60;85.40;;;;;;5053042;28;20514;-67
2022/06/05 05:50:15;;;;;;;19.60;18.90;;;23.60;85.50;;;;;;5053144;28;20446;-66
2022/06/05 05:52:42;;;;;;;19.40;18.70;;;23.60;85.40;;;;;;5053365;28;20447;-67
2022/06/05 05:55:12;;;;;;;18.37;17.77;;;23.50;85.60;;;;;;5052385;28;20452;-67
2022/06/05 05:57:39;;;;;;;18.90;18.20;;;23.60;85.60;;;;;;5052693;28;20522;-66
2022/06/05 06:00:09;;;;;;;18.90;18.30;;;23.60;85.50;;;;;;5052812;28;20447;-66
2022/06/05 06:02:37;;;;;;;19.30;18.60;;;23.50;85.40;;;;;;5056681;28;20479;-67
2022/06/05 06:05:07;;;;;;;20.40;19.70;;;23.60;85.80;;;;;;5052766;28;20818;-67
2022/06/05 06:07:34;;;;;;;19.80;19.00;;;23.60;86.00;;;;;;5052942;28;20440;-66
2022/06/05 06:10:01;;;;;;;20.17;19.47;;;23.60;86.00;;;;;;5052832;28;20530;-67
2022/06/05 06:12:27;;;;;;;20.20;19.50;;;23.60;87.00;;;;;;5066275;28;20918;-67
2022/06/05 06:14:54;;;;;;;19.77;19.07;;;23.60;86.40;;;;;;5072435;28;20520;-67
2022/06/05 06:17:21;;;;;;;18.87;18.27;;;23.60;86.50;;;;;;5072413;28;20531;-67
2022/06/05 06:19:49;;;;;;;20.00;19.27;;;23.60;86.40;;;;;;5072582;28;20439;-67
2022/06/05 06:22:17;;;;;;;19.73;18.93;;;23.60;86.50;;;;;;5060050;28;20563;-68
2022/06/05 06:24:44;;;;;;;20.37;19.53;;;23.60;86.90;;;;;;5059869;28;20470;-67
2022/06/05 06:27:11;;;;;;;21.17;20.37;;;23.60;87.30;;;;;;5072238;28;20443;-67
2022/06/05 06:29:37;;;;;;;20.80;20.10;;;23.60;87.20;;;;;;5072421;28;20814;-71
2022/06/05 06:32:06;;;;;;;20.07;19.37;;;23.70;87.30;;;;;;5061723;28;20941;-72
2022/06/05 06:34:33;;;;;;;21.63;20.73;;;23.70;87.30;;;;;;5052311;28;20559;-71
2022/06/05 06:37:00;;;;;;;21.30;20.20;;;23.70;87.50;;;;;;5052150;28;20999;-70
2022/06/05 06:39:29;;;;;;;20.13;19.33;;;23.70;87.70;;;;;;5052123;28;20455;-72
2022/06/05 06:41:56;;;;;;;20.90;20.20;;;23.70;87.60;;;;;;5060706;28;20482;-73
2022/06/05 06:44:23;;;;;;;19.93;19.23;;;23.80;87.60;;;;;;5072017;28;20557;-68
2022/06/05 06:46:50;;;;;;;20.57;19.47;;;23.70;87.30;;;;;;5071925;28;20891;-68
2022/06/05 06:49:17;;;;;;;20.57;19.57;;;23.70;87.50;;;;;;5072111;28;20530;-70
2022/06/05 06:51:48;;;;;;;21.63;20.83;;;23.70;88.20;;;;;;5065797;28;20450;-69
2022/06/05 06:54:16;;;;;;;21.60;20.80;;;23.70;88.40;;;;;;5051899;28;20475;-69
2022/06/05 06:56:45;;;;;;;21.77;20.97;;;23.80;87.90;;;;;;5052142;28;20452;-68
2022/06/05 06:59:12;;;;;;;22.57;21.70;;;23.90;88.30;;;;;;5052227;28;20511;-70
2022/06/05 07:01:40;;;;;;;21.00;20.20;;;23.80;88.30;;;;;;5057704;28;20982;-65
2022/06/05 07:04:07;;;;;;;20.67;19.90;;;23.80;89.10;;;;;;5071682;28;20535;-66
2022/06/05 07:06:36;;;;;;;21.73;20.93;;;23.80;90.00;;;;;;5070923;28;20459;-69
2022/06/05 07:09:03;;;;;;;22.13;21.23;;;23.90;90.00;;;;;;5071615;28;20485;-69
2022/06/05 07:11:30;;;;;;;21.60;20.80;;;23.90;89.80;;;;;;5066732;28;20448;-69
2022/06/05 07:13:59;;;;;;;22.60;21.70;;;23.90;89.20;;;;;;5051588;28;20463;-69
2022/06/05 07:16:26;;;;;;;20.53;19.77;;;23.90;89.40;;;;;;5051606;28;20502;-70
2022/06/05 07:18:53;;;;;;;21.93;21.13;;;23.90;89.20;;;;;;5051294;28;20498;-66
2022/06/05 07:21:22;;;;;;;21.43;20.63;;;23.90;89.20;;;;;;5053091;28;20451;-67
2022/06/05 07:23:51;;;;;;;21.63;20.73;;;23.90;89.30;;;;;;5051413;28;20483;-68
2022/06/05 07:26:21;;;;;;;22.17;21.27;;;23.90;89.00;;;;;;5051513;28;20501;-69
2022/06/05 07:28:49;;;;;;;20.90;20.13;;;23.90;89.00;;;;;;5064906;28;20436;-68
2022/06/05 07:31:22;;;;;;;22.03;21.13;;;23.90;89.40;;;;;;5073910;28;20427;-67
2022/06/05 07:33:56;;;;;;;22.83;21.93;;;23.90;89.00;;;;;;5071556;28;20475;-68
2022/06/05 07:36:27;;;;;;;22.10;21.30;;;23.90;89.50;;;;;;5055371;28;20793;-71
2022/06/05 07:38:59;;;;;;;21.23;20.43;;;23.90;89.40;;;;;;5051187;28;20440;-70
2022/06/05 07:41:32;;;;;;;20.80;20.10;;;23.90;88.90;;;;;;5054558;28;20443;-68
2022/06/05 07:44:04;;;;;;;21.40;20.60;;;23.90;88.90;;;;;;5071045;28;20466;-67
2022/06/05 07:46:37;;;;;;;20.63;19.80;;;23.90;89.30;;;;;;5071255;28;20815;-68
2022/06/05 07:49:05;;;;;;;22.50;21.03;;;23.90;89.50;;;;;;5071043;28;20443;-68
2022/06/05 07:54:29;;;;;;;22.37;21.47;;;23.90;91.10;;;;;;5071288;28;20443;-68
2022/06/05 07:56:57;;;;;;;22.00;20.87;;;23.90;92.10;;;;;;5071466;28;20492;-70
2022/06/05 07:59:25;;;;;;;23.47;22.27;;;23.90;94.30;;;;;;5071133;28;20451;-67
2022/06/05 08:01:53;;;;;;;24.43;23.03;;;23.90;96.30;;;;;;5064725;28;20451;-65
2022/06/05 08:04:20;;;;;;;21.90;20.80;;;23.90;96.50;;;;;;5051041;28;20468;-65
2022/06/05 08:06:48;;;;;;;22.87;21.70;;;23.90;95.80;;;;;;5051030;28;20454;-64
2022/06/05 08:09:15;;;;;;;21.13;20.33;;;23.90;95.20;;;;;;5051026;28;20872;-65
2022/06/05 08:11:45;;;;;;;21.80;20.27;;;23.90;94.70;;;;;;5050622;28;20448;-65
2022/06/05 08:14:12;;;;;;;21.03;20.13;;;23.90;93.50;;;;;;5049428;28;20472;-65
2022/06/05 08:16:43;;;;;;;21.60;20.60;;;23.90;93.10;;;;;;5051432;28;20535;-65
2022/06/05 08:19:12;;;;;;;21.00;20.20;;;23.90;92.70;;;;;;5054190;28;20479;-65
2022/06/05 08:21:39;;;;;;;20.70;19.90;;;23.90;92.50;;;;;;5054889;28;20446;-65
2022/06/05 08:24:07;;;;;;;23.30;22.20;;;23.90;92.40;;;;;;5054861;28;20868;-65
2022/06/05 08:26:34;;;;;;;20.97;20.17;;;23.90;92.10;;;;;;5054995;28;20440;-65
2022/06/05 08:29:02;;;;;;;20.93;19.93;;;23.90;91.90;;;;;;5054622;28;20452;-65
2022/06/05 08:31:29;;;;;;;21.50;20.60;;;23.90;91.60;;;;;;5054566;28;20444;-65
2022/06/05 08:33:57;;;;;;;20.40;19.60;;;23.90;91.20;;;;;;5054507;28;20507;-65
2022/06/05 08:36:26;;;;;;;20.17;19.23;;;24.00;91.10;;;;;;5054574;28;20863;-65
2022/06/05 08:41:47;;;;;;;20.43;19.63;;;23.90;91.10;;;;;;5054576;28;20507;-65
2022/06/05 08:44:25;;;;;;;20.23;19.53;;;23.90;91.10;;;;;;5054308;28;20967;-65
2022/06/05 08:46:56;;;;;;;19.27;18.57;;;23.90;91.10;;;;;;5054294;28;20432;-65
2022/06/05 08:49:39;;;;;;;20.77;19.70;;;23.90;90.90;;;;;;5054198;28;20935;-65
2022/06/05 08:52:20;;;;;;;20.30;19.50;;;23.90;91.10;;;;;;5054477;28;20448;-65
2022/06/05 08:54:54;;;;;;;20.17;19.37;;;23.90;90.90;;;;;;5054159;28;20447;-65
2022/06/05 08:57:27;;;;;;;19.33;18.63;;;23.90;90.60;;;;;;5054008;28;20448;-66
2022/06/05 08:59:58;;;;;;;20.73;20.00;;;23.90;90.50;;;;;;5054085;28;20487;-65
2022/06/05 09:02:31;;;;;;;20.50;19.67;;;23.90;90.80;;;;;;5054030;28;20484;-65
2022/06/05 09:05:01;;;;;;;19.97;19.20;;;23.90;90.80;;;;;;5054012;28;20444;-65
2022/06/05 09:07:34;;;;;;;20.13;19.43;;;23.90;90.60;;;;;;5053830;28;20539;-65
2022/06/05 09:10:08;;;;;;;20.00;19.20;;;23.90;90.70;;;;;;5053830;28;20462;-65
2022/06/05 09:12:41;;;;;;;19.50;18.70;;;23.90;90.70;;;;;;5053857;28;20441;-65
2022/06/05 09:15:16;;;;;;;20.27;19.37;;;23.90;90.70;;;;;;5053783;28;20478;-65
2022/06/05 09:17:49;;;;;;;20.00;19.30;;;23.90;91.20;;;;;;5053577;28;20466;-66
2022/06/05 09:20:18;;;;;;;19.73;18.97;;;23.90;90.70;;;;;;5053955;28;20531;-65
2022/06/05 09:22:50;;;;;;;20.10;19.20;;;23.90;90.70;;;;;;5053604;28;20483;-65
2022/06/05 09:25:46;;;;;;;20.37;19.60;;;23.90;90.90;;;;;;5053544;28;20447;-65
2022/06/05 09:28:29;;;;;;;19.93;19.23;;;23.90;91.10;;;;;;5036158;28;20534;-65
2022/06/05 09:31:03;;;;;;;21.63;20.83;;;23.90;92.20;;;;;;5052840;28;20811;-65
2022/06/05 09:33:35;;;;;;;19.30;18.60;;;23.90;92.80;;;;;;5053192;28;20551;-64
2022/06/05 09:36:07;;;;;;;20.00;19.30;;;23.90;92.80;;;;;;5053536;28;20440;-65
2022/06/05 09:38:41;;;;;;;19.77;19.07;;;23.90;94.20;;;;;;5053197;28;20527;-65
2022/06/05 09:41:28;;;;;;;21.10;20.30;;;23.90;93.90;;;;;;5053206;28;20440;-65
2022/06/05 09:44:12;;;;;;;21.40;20.23;;;23.90;94.00;;;;;;5053093;28;20487;-65
2022/06/05 09:46:54;;;;;;;20.23;19.53;;;23.90;94.40;;;;;;5053179;28;20527;-65
2022/06/05 09:49:26;;;;;;;20.80;20.00;;;23.80;94.60;;;;;;5053206;28;20536;-65
2022/06/05 09:51:54;;;;;;;21.03;20.23;;;23.80;95.80;;;;;;5053171;28;20470;-65
2022/06/05 09:54:28;;;;;;;21.37;20.47;;;23.80;95.60;;;;;;5052849;28;20556;-65
2022/06/05 10:00:01;;;;;;;21.63;20.80;;;23.80;96.70;;;;;;5053000;28;20427;-65
2022/06/05 10:02:29;;;;;;;20.47;19.67;;;23.80;96.00;;;;;;5053073;28;20874;-65
2022/06/05 10:04:57;;;;;;;21.50;20.70;;;23.80;96.20;;;;;;5053496;28;20559;-65
2022/06/05 10:07:29;;;;;;;20.70;19.90;;;23.80;97.10;;;;;;5053325;28;20523;-65
2022/06/05 10:09:58;;;;;;;19.70;19.00;;;23.80;96.80;;;;;;5053481;28;20927;-65
2022/06/05 10:12:29;;;;;;;19.77;18.97;;;23.80;97.80;;;;;;5052806;28;20456;-65
2022/06/05 10:15:02;;;;;;;20.43;19.63;;;23.80;96.80;;;;;;5052643;28;20550;-65
2022/06/05 10:17:49;;;;;;;21.33;20.43;;;23.80;97.50;;;;;;5052585;28;20444;-65
2022/06/05 10:20:46;;;;;;;19.93;19.20;;;23.80;98.60;;;;;;5052670;28;20449;-65
2022/06/05 10:23:35;;;;;;;20.43;19.70;;;23.80;98.70;;;;;;5052628;28;20570;-65
2022/06/05 10:26:15;;;;;;;20.80;20.00;;;23.90;97.80;;;;;;5052794;28;20451;-65
2022/06/05 10:28:45;;;;;;;20.30;19.50;;;23.90;98.20;;;;;;5052246;28;20444;-65
2022/06/05 10:31:15;;;;;;;21.40;20.60;;;23.80;99.90;;;;;;5052427;28;20446;-65
2022/06/05 10:33:52;;;;;;;19.57;18.87;;;23.80;99.80;;;;;;5084113;23;20495;-71
2022/06/05 10:36:22;;;;;;;20.90;20.10;;;23.80;99.70;;;;;;5084046;28;20819;-72
2022/06/05 10:38:56;;;;;;;20.70;19.90;;;23.80;99.90;;;;;;5092244;28;20510;-72
2022/06/05 10:41:33;;;;;;;20.00;19.30;;;23.80;99.90;;;;;;5092454;28;20441;-71
2022/06/05 10:44:15;;;;;;;21.03;20.23;;;23.80;99.90;;;;;;5092277;28;20560;-72
2022/06/05 10:46:57;;;;;;;20.90;20.10;;;23.80;99.90;;;;;;5092444;28;20453;-72
2022/06/05 10:49:30;;;;;;;21.93;21.10;;;23.90;99.90;;;;;;5092280;28;20537;-71
2022/06/05 10:52:09;;;;;;;19.40;18.70;;;23.90;99.90;;;;;;5092316;28;20446;-71
2022/06/05 10:54:46;;;;;;;21.07;20.27;;;23.90;99.90;;;;;;5092036;28;20489;-71
2022/06/05 10:57:19;;;;;;;20.43;19.70;;;23.80;99.90;;;;;;5091969;28;20858;-71
2022/06/05 10:59:54;;;;;;;20.77;19.97;;;23.90;99.90;;;;;;5092003;28;20469;-72
2022/06/05 11:02:37;;;;;;;20.20;19.47;;;23.90;99.90;;;;;;5092027;28;20537;-72
2022/06/05 11:05:23;;;;;;;20.47;19.67;;;23.80;99.90;;;;;;5092055;28;20549;-72
2022/06/05 11:07:59;;;;;;;20.10;19.40;;;23.90;99.90;;;;;;5091701;28;20782;-72
2022/06/05 11:13:44;;;;;;;20.47;19.63;;;23.90;99.90;;;;;;5065638;28;20439;-72
2022/06/05 11:16:24;;;;;;;20.57;19.77;;;23.90;99.90;;;;;;5091906;28;20446;-72
2022/06/05 11:18:59;;;;;;;20.40;19.60;;;23.90;99.90;;;;;;5091787;28;20534;-72
2022/06/05 11:21:29;;;;;;;20.40;19.63;;;23.90;99.90;;;;;;5091784;28;20450;-71
2022/06/05 11:23:59;;;;;;;20.87;19.97;;;23.90;99.90;;;;;;5091622;28;20486;-72
2022/06/05 11:26:35;;;;;;;20.20;19.40;;;23.80;99.90;;;;;;5091726;28;20970;-72
2022/06/05 11:29:14;;;;;;;21.10;20.30;;;23.80;99.90;;;;;;5091585;28;20782;-72
2022/06/05 11:31:54;;;;;;;20.20;19.50;;;23.80;99.90;;;;;;5091825;28;20957;-71
2022/06/05 11:34:42;;;;;;;20.07;19.37;;;23.90;99.90;;;;;;5091591;28;20505;-72
2022/06/05 11:37:47;;;;;;;20.70;19.90;;;23.80;99.90;;;;;;5091396;28;20485;-72
2022/06/05 11:40:30;;;;;;;20.10;19.30;;;23.90;99.90;;;;;;5082372;28;20973;-71
2022/06/05 11:43:16;;;;;;;19.30;18.60;;;23.90;99.90;;;;;;5091572;28;21001;-71
2022/06/05 11:45:53;;;;;;;20.37;19.57;;;23.80;99.90;;;;;;5091647;28;20537;-71
2022/06/05 11:48:27;;;;;;;19.73;19.03;;;23.90;99.90;;;;;;5091335;28;20988;-71
2022/06/05 11:51:02;;;;;;;19.77;19.00;;;23.90;99.90;;;;;;5091489;28;20447;-71
2022/06/05 11:53:40;;;;;;;20.53;19.83;;;23.90;99.90;;;;;;5093693;28;20541;-71
2022/06/05 11:56:32;;;;;;;20.47;19.67;;;23.90;99.90;;;;;;5095635;28;20524;-72
2022/06/05 11:59:10;;;;;;;20.07;19.30;;;23.90;99.90;;;;;;5095283;28;20532;-72
2022/06/05 12:01:44;;;;;;;21.43;20.60;;;23.90;99.90;;;;;;5095517;28;20536;-72
2022/06/05 12:04:19;;;;;;;21.20;20.40;;;23.90;99.90;;;;;;5095234;28;20482;-72
2022/06/05 12:06:51;;;;;;;20.87;20.07;;;23.90;99.90;;;;;;5095213;28;20461;-72
2022/06/05 12:09:20;;;;;;;21.63;20.83;;;24.00;99.90;;;;;;5095134;28;20449;-72
2022/06/05 12:11:54;;;;;;;20.97;20.20;;;24.00;99.90;;;;;;5095189;28;20536;-72
2022/06/05 12:14:26;;;;;;;21.40;20.60;;;24.00;99.90;;;;;;5095438;28;20467;-72
2022/06/05 12:17:04;;;;;;;21.00;20.20;;;24.00;99.90;;;;;;5095077;28;20525;-72
2022/06/05 12:19:44;;;;;;;20.17;19.47;;;24.00;99.90;;;;;;5094983;28;20467;-72
2022/06/05 12:22:19;;;;;;;20.53;19.73;;;24.00;99.90;;;;;;5095138;28;20554;-71
2022/06/05 12:24:54;;;;;;;21.10;20.30;;;24.00;99.90;;;;;;5094869;28;20918;-71
2022/06/05 12:27:21;;;;;;;20.87;20.10;;;24.00;99.90;;;;;;5095031;28;20481;-71
2022/06/05 12:29:56;;;;;;;20.50;19.60;;;24.00;99.90;;;;;;5094927;28;20921;-71
2022/06/05 12:32:37;;;;;;;20.97;20.17;;;24.00;99.90;;;;;;5094922;28;20959;-72
2022/06/05 12:35:12;;;;;;;21.30;20.50;;;24.00;99.90;;;;;;5094638;28;20553;-72
2022/06/05 12:37:43;;;;;;;22.80;21.90;;;24.00;99.90;;;;;;5094634;28;20529;-72
2022/06/05 12:40:18;;;;;;;21.03;20.20;;;24.10;99.90;;;;;;5094643;28;20446;-71
2022/06/05 12:42:50;;;;;;;20.53;19.83;;;24.10;99.90;;;;;;5094786;28;20525;-70
2022/06/05 12:45:22;;;;;;;21.17;20.27;;;24.10;99.90;;;;;;5094492;28;20565;-71
2022/06/05 12:48:01;;;;;;;21.20;20.40;;;24.10;99.90;;;;;;5094315;28;20529;-71
2022/06/05 12:50:42;;;;;;;20.83;20.03;;;24.10;99.90;;;;;;5094468;28;20442;-72
2022/06/05 12:53:16;;;;;;;19.87;19.17;;;24.10;99.90;;;;;;5094470;28;20860;-71
2022/06/05 12:55:47;;;;;;;20.90;20.10;;;24.10;99.90;;;;;;5094681;28;20940;-71
2022/06/05 12:58:21;;;;;;;21.40;20.60;;;24.10;99.90;;;;;;5094231;28;20435;-71
2022/06/05 13:00:55;;;;;;;19.80;19.10;;;24.10;99.90;;;;;;5094436;28;20450;-71
2022/06/05 13:03:31;;;;;;;20.23;19.53;;;24.10;99.90;;;;;;5094182;28;20464;-72
2022/06/05 13:06:03;;;;;;;20.53;19.83;;;24.10;99.90;;;;;;5094270;28;20533;-71